sensor_id;sensor_type;location;lat;lon;timestamp;temperature;humidity
33011;DHT22;19370;48.562;9.196;2022-10-17T00:01:17;13.40;99.90
33011;DHT22;19370;48.562;9.196;2022-10-17T00:03:43;13.40;99.90
33011;DHT22;19370;48.562;9.196;2022-10-17T00:06:11;13.30;99.90
33011;DHT22;19370;48.562;9.196;2022-10-17T00:08:38;13.30;99.90
33011;DHT22;19370;48.562;9.196;2022-10-17T00:11:17;13.20;99.90
33011;DHT22;19370;48.562;9.196;2022-10-17T00:13:44;13.10;99.90
33011;DHT22;19370;48.562;9.196;2022-10-17T00:16:10;13.10;99.90
33011;DHT22;19370;48.562;9.196;2022-10-17T00:18:36;13.10;99.90
33011;DHT22;19370;48.562;9.196;2022-10-17T00:21:02;13.20;99.90
33011;DHT22;19370;48.562;9.196;2022-10-17T00:23:29;13.20;99.90
33011;DHT22;19370;48.562;9.196;2022-10-17T00:25:59;13.20;99.90
33011;DHT22;19370;48.562;9.196;2022-10-17T00:28:26;13.20;99.90
33011;DHT22;19370;48.562;9.196;2022-10-17T00:30:58;13.20;99.90
33011;DHT22;19370;48.562;9.196;2022-10-17T00:33:25;13.30;99.90
33011;DHT22;19370;48.562;9.196;2022-10-17T00:36:11;13.30;99.90
33011;DHT22;19370;48.562;9.196;2022-10-17T00:38:39;13.20;99.90
33011;DHT22;19370;48.562;9.196;2022-10-17T00:41:07;13.20;99.90
33011;DHT22;19370;48.562;9.196;2022-10-17T00:46:31;13.30;99.90
33011;DHT22;19370;48.562;9.196;2022-10-17T00:49:00;13.30;99.90
33011;DHT22;19370;48.562;9.196;2022-10-17T00:51:33;13.30;99.90
33011;DHT22;19370;48.562;9.196;2022-10-17T00:54:02;13.30;99.90
33011;DHT22;19370;48.562;9.196;2022-10-17T00:56:28;13.30;99.90
33011;DHT22;19370;48.562;9.196;2022-10-17T00:58:55;13.30;99.90
33011;DHT22;19370;48.562;9.196;2022-10-17T01:01:21;13.20;99.90
33011;DHT22;19370;48.562;9.196;2022-10-17T01:03:47;13.20;99.90
33011;DHT22;19370;48.562;9.196;2022-10-17T01:06:12;13.10;99.90
33011;DHT22;19370;48.562;9.196;2022-10-17T01:08:38;13.00;99.90
33011;DHT22;19370;48.562;9.196;2022-10-17T01:17:21;13.00;99.90
33011;DHT22;19370;48.562;9.196;2022-10-17T01:20:24;13.00;99.90
33011;DHT22;19370;48.562;9.196;2022-10-17T01:25:54;12.90;99.90
33011;DHT22;19370;48.562;9.196;2022-10-17T01:31:33;12.90;99.90
33011;DHT22;19370;48.562;9.196;2022-10-17T01:34:20;12.90;99.90
33011;DHT22;19370;48.562;9.196;2022-10-17T01:37:05;12.90;99.90
33011;DHT22;19370;48.562;9.196;2022-10-17T01:39:46;12.90;99.90
33011;DHT22;19370;48.562;9.196;2022-10-17T01:44:57;12.90;99.90
33011;DHT22;19370;48.562;9.196;2022-10-17T01:47:30;12.90;99.90
33011;DHT22;19370;48.562;9.196;2022-10-17T01:50:06;12.80;99.90
33011;DHT22;19370;48.562;9.196;2022-10-17T01:52:42;12.70;99.90
33011;DHT22;19370;48.562;9.196;2022-10-17T01:55:13;12.70;99.90
33011;DHT22;19370;48.562;9.196;2022-10-17T01:57:50;12.50;99.90
33011;DHT22;19370;48.562;9.196;2022-10-17T02:00:20;12.50;99.90
33011;DHT22;19370;48.562;9.196;2022-10-17T02:02:48;12.50;99.90
33011;DHT22;19370;48.562;9.196;2022-10-17T02:05:19;12.50;99.90
33011;DHT22;19370;48.562;9.196;2022-10-17T02:07:46;12.50;99.90
33011;DHT22;19370;48.562;9.196;2022-10-17T02:10:40;12.50;99.90
33011;DHT22;19370;48.562;9.196;2022-10-17T02:13:05;12.50;99.90
33011;DHT22;19370;48.562;9.196;2022-10-17T02:18:19;12.60;99.90
33011;DHT22;19370;48.562;9.196;2022-10-17T02:21:01;12.70;99.90
33011;DHT22;19370;48.562;9.196;2022-10-17T02:23:45;12.70;99.90
33011;DHT22;19370;48.562;9.196;2022-10-17T02:26:23;12.80;99.90
33011;DHT22;19370;48.562;9.196;2022-10-17T02:29:29;12.90;99.90
33011;DHT22;19370;48.562;9.196;2022-10-17T02:32:03;12.90;99.90
33011;DHT22;19370;48.562;9.196;2022-10-17T02:34:41;12.90;99.90
33011;DHT22;19370;48.562;9.196;2022-10-17T02:37:10;12.80;99.90
33011;DHT22;19370;48.562;9.196;2022-10-17T02:39:39;12.80;99.90
33011;DHT22;19370;48.562;9.196;2022-10-17T02:42:07;12.70;99.90
33011;DHT22;19370;48.562;9.196;2022-10-17T02:44:36;12.70;99.90
33011;DHT22;19370;48.562;9.196;2022-10-17T02:47:26;12.60;99.90
33011;DHT22;19370;48.562;9.196;2022-10-17T02:49:54;12.60;99.90
33011;DHT22;19370;48.562;9.196;2022-10-17T02:52:45;12.60;99.90
33011;DHT22;19370;48.562;9.196;2022-10-17T02:55:34;12.70;99.90
33011;DHT22;19370;48.562;9.196;2022-10-17T02:58:15;12.70;99.90
33011;DHT22;19370;48.562;9.196;2022-10-17T03:00:42;12.80;99.90
33011;DHT22;19370;48.562;9.196;2022-10-17T03:03:27;12.80;99.90
33011;DHT22;19370;48.562;9.196;2022-10-17T03:05:53;12.70;99.90
33011;DHT22;19370;48.562;9.196;2022-10-17T03:08:19;12.70;99.90
33011;DHT22;19370;48.562;9.196;2022-10-17T03:10:46;12.70;99.90
33011;DHT22;19370;48.562;9.196;2022-10-17T03:13:12;12.70;99.90
33011;DHT22;19370;48.562;9.196;2022-10-17T03:15:38;12.70;99.90
33011;DHT22;19370;48.562;9.196;2022-10-17T03:18:04;12.70;99.90
33011;DHT22;19370;48.562;9.196;2022-10-17T03:20:30;12.70;99.90
33011;DHT22;19370;48.562;9.196;2022-10-17T03:22:55;12.70;99.90
33011;DHT22;19370;48.562;9.196;2022-10-17T03:25:21;12.70;99.90
33011;DHT22;19370;48.562;9.196;2022-10-17T03:27:47;12.70;99.90
33011;DHT22;19370;48.562;9.196;2022-10-17T03:30:12;12.80;99.90
33011;DHT22;19370;48.562;9.196;2022-10-17T03:32:38;12.80;99.90
33011;DHT22;19370;48.562;9.196;2022-10-17T03:35:04;12.70;99.90
33011;DHT22;19370;48.562;9.196;2022-10-17T03:37:30;12.70;99.90
33011;DHT22;19370;48.562;9.196;2022-10-17T03:39:55;12.70;99.90
33011;DHT22;19370;48.562;9.196;2022-10-17T03:42:24;12.70;99.90
33011;DHT22;19370;48.562;9.196;2022-10-17T03:44:50;12.50;99.90
33011;DHT22;19370;48.562;9.196;2022-10-17T03:47:15;12.50;99.90
33011;DHT22;19370;48.562;9.196;2022-10-17T03:49:41;12.30;99.90
33011;DHT22;19370;48.562;9.196;2022-10-17T03:52:11;12.20;99.90
33011;DHT22;19370;48.562;9.196;2022-10-17T03:54:37;12.20;99.90
33011;DHT22;19370;48.562;9.196;2022-10-17T03:57:02;12.10;99.90
33011;DHT22;19370;48.562;9.196;2022-10-17T03:59:29;12.10;99.90
33011;DHT22;19370;48.562;9.196;2022-10-17T04:01:54;12.00;99.90
33011;DHT22;19370;48.562;9.196;2022-10-17T04:04:20;12.00;99.90
33011;DHT22;19370;48.562;9.196;2022-10-17T04:06:46;11.90;99.90
33011;DHT22;19370;48.562;9.196;2022-10-17T04:09:12;11.90;99.90
33011;DHT22;19370;48.562;9.196;2022-10-17T04:11:37;11.90;99.90
33011;DHT22;19370;48.562;9.196;2022-10-17T04:14:03;11.80;99.90
33011;DHT22;19370;48.562;9.196;2022-10-17T04:16:29;11.90;99.90
33011;DHT22;19370;48.562;9.196;2022-10-17T04:18:56;11.90;99.90
33011;DHT22;19370;48.562;9.196;2022-10-17T04:21:24;11.90;99.90
33011;DHT22;19370;48.562;9.196;2022-10-17T04:23:56;11.90;99.90
33011;DHT22;19370;48.562;9.196;2022-10-17T04:26:22;11.90;99.90
33011;DHT22;19370;48.562;9.196;2022-10-17T04:28:49;12.00;99.90
33011;DHT22;19370;48.562;9.196;2022-10-17T04:31:15;12.00;99.90
33011;DHT22;19370;48.562;9.196;2022-10-17T04:33:41;12.10;99.90
33011;DHT22;19370;48.562;9.196;2022-10-17T04:36:13;12.10;99.90
33011;DHT22;19370;48.562;9.196;2022-10-17T04:38:39;12.10;99.90
33011;DHT22;19370;48.562;9.196;2022-10-17T04:41:06;12.00;99.90
33011;DHT22;19370;48.562;9.196;2022-10-17T04:43:35;12.00;99.90
33011;DHT22;19370;48.562;9.196;2022-10-17T04:46:04;12.00;99.90
33011;DHT22;19370;48.562;9.196;2022-10-17T04:48:30;11.90;99.90
33011;DHT22;19370;48.562;9.196;2022-10-17T04:50:58;12.00;99.90
33011;DHT22;19370;48.562;9.196;2022-10-17T04:53:24;12.00;99.90
33011;DHT22;19370;48.562;9.196;2022-10-17T04:55:50;12.00;99.90
33011;DHT22;19370;48.562;9.196;2022-10-17T04:58:16;12.00;99.90
33011;DHT22;19370;48.562;9.196;2022-10-17T05:00:42;11.90;99.90
33011;DHT22;19370;48.562;9.196;2022-10-17T05:03:08;11.90;99.90
33011;DHT22;19370;48.562;9.196;2022-10-17T05:05:39;11.90;99.90
33011;DHT22;19370;48.562;9.196;2022-10-17T05:08:06;12.00;99.90
33011;DHT22;19370;48.562;9.196;2022-10-17T05:10:44;11.90;99.90
33011;DHT22;19370;48.562;9.196;2022-10-17T05:13:10;11.90;99.90
33011;DHT22;19370;48.562;9.196;2022-10-17T05:15:37;11.90;99.90
33011;DHT22;19370;48.562;9.196;2022-10-17T05:18:04;11.80;99.90
33011;DHT22;19370;48.562;9.196;2022-10-17T05:20:33;11.80;99.90
33011;DHT22;19370;48.562;9.196;2022-10-17T05:22:59;11.80;99.90
33011;DHT22;19370;48.562;9.196;2022-10-17T05:25:25;11.90;99.90
33011;DHT22;19370;48.562;9.196;2022-10-17T05:27:51;11.90;99.90
33011;DHT22;19370;48.562;9.196;2022-10-17T05:30:16;11.80;99.90
33011;DHT22;19370;48.562;9.196;2022-10-17T05:32:42;11.80;99.90
33011;DHT22;19370;48.562;9.196;2022-10-17T05:35:08;11.90;99.90
33011;DHT22;19370;48.562;9.196;2022-10-17T05:37:34;11.90;99.90
33011;DHT22;19370;48.562;9.196;2022-10-17T05:40:00;11.80;99.90
33011;DHT22;19370;48.562;9.196;2022-10-17T05:42:26;11.80;99.90
33011;DHT22;19370;48.562;9.196;2022-10-17T05:44:51;11.70;99.90
33011;DHT22;19370;48.562;9.196;2022-10-17T05:47:17;11.80;99.90
33011;DHT22;19370;48.562;9.196;2022-10-17T05:49:43;11.80;99.90
33011;DHT22;19370;48.562;9.196;2022-10-17T05:52:09;11.80;99.90
33011;DHT22;19370;48.562;9.196;2022-10-17T05:54:34;11.80;99.90
33011;DHT22;19370;48.562;9.196;2022-10-17T05:57:00;11.80;99.90
33011;DHT22;19370;48.562;9.196;2022-10-17T05:59:27;11.70;99.90
33011;DHT22;19370;48.562;9.196;2022-10-17T06:01:52;11.60;99.90
33011;DHT22;19370;48.562;9.196;2022-10-17T06:04:18;11.70;99.90
33011;DHT22;19370;48.562;9.196;2022-10-17T06:06:44;11.80;99.90
33011;DHT22;19370;48.562;9.196;2022-10-17T06:09:10;11.80;99.90
33011;DHT22;19370;48.562;9.196;2022-10-17T06:11:35;11.70;99.90
33011;DHT22;19370;48.562;9.196;2022-10-17T06:14:02;11.80;99.90
33011;DHT22;19370;48.562;9.196;2022-10-17T06:16:28;11.80;99.90
33011;DHT22;19370;48.562;9.196;2022-10-17T06:18:53;11.80;99.90
33011;DHT22;19370;48.562;9.196;2022-10-17T06:21:24;11.80;99.90
33011;DHT22;19370;48.562;9.196;2022-10-17T06:23:50;11.90;99.90
33011;DHT22;19370;48.562;9.196;2022-10-17T06:26:17;12.00;99.90
33011;DHT22;19370;48.562;9.196;2022-10-17T06:28:43;12.00;99.90
33011;DHT22;19370;48.562;9.196;2022-10-17T06:31:11;12.00;99.90
33011;DHT22;19370;48.562;9.196;2022-10-17T06:33:37;12.00;99.90
33011;DHT22;19370;48.562;9.196;2022-10-17T06:36:05;12.10;99.90
33011;DHT22;19370;48.562;9.196;2022-10-17T06:38:33;12.20;99.90
33011;DHT22;19370;48.562;9.196;2022-10-17T06:41:07;12.20;99.90
33011;DHT22;19370;48.562;9.196;2022-10-17T06:43:36;12.40;99.90
33011;DHT22;19370;48.562;9.196;2022-10-17T06:46:03;12.40;99.90
33011;DHT22;19370;48.562;9.196;2022-10-17T06:48:29;12.50;99.90
33011;DHT22;19370;48.562;9.196;2022-10-17T06:51:02;12.60;99.90
33011;DHT22;19370;48.562;9.196;2022-10-17T06:53:30;12.70;99.90
33011;DHT22;19370;48.562;9.196;2022-10-17T06:55:56;12.80;99.90
33011;DHT22;19370;48.562;9.196;2022-10-17T06:58:33;12.90;99.90
33011;DHT22;19370;48.562;9.196;2022-10-17T07:01:08;13.10;99.90
33011;DHT22;19370;48.562;9.196;2022-10-17T07:03:35;13.20;99.90
33011;DHT22;19370;48.562;9.196;2022-10-17T07:06:01;13.20;99.90
33011;DHT22;19370;48.562;9.196;2022-10-17T07:08:27;13.30;99.90
33011;DHT22;19370;48.562;9.196;2022-10-17T07:10:53;13.40;99.90
33011;DHT22;19370;48.562;9.196;2022-10-17T07:13:19;13.50;99.90
33011;DHT22;19370;48.562;9.196;2022-10-17T07:15:45;13.50;99.90
33011;DHT22;19370;48.562;9.196;2022-10-17T07:18:11;13.50;99.90
33011;DHT22;19370;48.562;9.196;2022-10-17T07:20:37;13.50;99.90
33011;DHT22;19370;48.562;9.196;2022-10-17T07:23:03;13.60;99.90
33011;DHT22;19370;48.562;9.196;2022-10-17T07:25:29;13.70;99.90
33011;DHT22;19370;48.562;9.196;2022-10-17T07:27:55;13.60;99.90
33011;DHT22;19370;48.562;9.196;2022-10-17T07:30:21;13.40;99.90
33011;DHT22;19370;48.562;9.196;2022-10-17T07:32:47;13.30;99.90
33011;DHT22;19370;48.562;9.196;2022-10-17T07:35:13;13.30;99.90
33011;DHT22;19370;48.562;9.196;2022-10-17T07:37:39;13.50;99.90
33011;DHT22;19370;48.562;9.196;2022-10-17T07:40:06;13.60;99.90
33011;DHT22;19370;48.562;9.196;2022-10-17T07:42:36;13.60;99.90
33011;DHT22;19370;48.562;9.196;2022-10-17T07:45:03;13.70;99.90
33011;DHT22;19370;48.562;9.196;2022-10-17T07:47:29;13.70;99.90
33011;DHT22;19370;48.562;9.196;2022-10-17T07:49:56;13.70;99.90
33011;DHT22;19370;48.562;9.196;2022-10-17T07:52:22;13.70;99.90
33011;DHT22;19370;48.562;9.196;2022-10-17T07:54:48;13.70;99.90
33011;DHT22;19370;48.562;9.196;2022-10-17T07:57:14;13.80;99.90
33011;DHT22;19370;48.562;9.196;2022-10-17T07:59:39;13.80;99.90
33011;DHT22;19370;48.562;9.196;2022-10-17T08:02:05;13.90;99.90
33011;DHT22;19370;48.562;9.196;2022-10-17T08:04:33;13.80;99.90
33011;DHT22;19370;48.562;9.196;2022-10-17T08:06:59;13.60;99.90
33011;DHT22;19370;48.562;9.196;2022-10-17T08:09:25;13.70;99.90
33011;DHT22;19370;48.562;9.196;2022-10-17T08:11:51;13.80;99.90
33011;DHT22;19370;48.562;9.196;2022-10-17T08:14:17;13.80;99.90
33011;DHT22;19370;48.562;9.196;2022-10-17T08:16:42;13.80;99.90
33011;DHT22;19370;48.562;9.196;2022-10-17T08:19:08;14.20;99.90
33011;DHT22;19370;48.562;9.196;2022-10-17T08:21:37;14.30;99.90
33011;DHT22;19370;48.562;9.196;2022-10-17T08:24:03;14.70;99.90
33011;DHT22;19370;48.562;9.196;2022-10-17T08:26:29;14.80;99.90
33011;DHT22;19370;48.562;9.196;2022-10-17T08:28:55;14.80;99.90
33011;DHT22;19370;48.562;9.196;2022-10-17T08:31:21;15.00;99.90
33011;DHT22;19370;48.562;9.196;2022-10-17T08:33:48;15.10;99.90
33011;DHT22;19370;48.562;9.196;2022-10-17T08:36:17;15.40;99.90
33011;DHT22;19370;48.562;9.196;2022-10-17T08:38:43;15.60;99.90
33011;DHT22;19370;48.562;9.196;2022-10-17T08:41:21;15.40;99.90
33011;DHT22;19370;48.562;9.196;2022-10-17T08:46:46;15.70;99.90
33011;DHT22;19370;48.562;9.196;2022-10-17T08:49:19;15.80;99.90
33011;DHT22;19370;48.562;9.196;2022-10-17T08:51:57;15.90;99.90
33011;DHT22;19370;48.562;9.196;2022-10-17T08:54:40;16.00;99.90
33011;DHT22;19370;48.562;9.196;2022-10-17T08:57:12;16.10;99.90
33011;DHT22;19370;48.562;9.196;2022-10-17T08:59:38;16.30;99.90
33011;DHT22;19370;48.562;9.196;2022-10-17T09:10:52;16.50;99.90
33011;DHT22;19370;48.562;9.196;2022-10-17T09:18:45;17.10;99.90
33011;DHT22;19370;48.562;9.196;2022-10-17T09:21:16;16.70;99.90
33011;DHT22;19370;48.562;9.196;2022-10-17T09:23:55;16.90;99.90
33011;DHT22;19370;48.562;9.196;2022-10-17T09:26:23;17.20;99.90
33011;DHT22;19370;48.562;9.196;2022-10-17T09:28:53;17.40;99.90
33011;DHT22;19370;48.562;9.196;2022-10-17T09:31:39;17.40;99.90
33011;DHT22;19370;48.562;9.196;2022-10-17T09:34:08;17.50;99.90
33011;DHT22;19370;48.562;9.196;2022-10-17T09:36:39;17.50;99.90
33011;DHT22;19370;48.562;9.196;2022-10-17T09:39:15;17.20;99.90
33011;DHT22;19370;48.562;9.196;2022-10-17T09:41:54;17.40;99.90
33011;DHT22;19370;48.562;9.196;2022-10-17T09:44:39;17.50;99.90
33011;DHT22;19370;48.562;9.196;2022-10-17T09:49:38;17.80;99.90
33011;DHT22;19370;48.562;9.196;2022-10-17T09:52:13;17.90;99.90
33011;DHT22;19370;48.562;9.196;2022-10-17T09:54:49;18.10;99.90
33011;DHT22;19370;48.562;9.196;2022-10-17T09:57:17;18.30;99.90
33011;DHT22;19370;48.562;9.196;2022-10-17T09:59:59;18.40;99.90
33011;DHT22;19370;48.562;9.196;2022-10-17T10:02:27;18.40;99.90
33011;DHT22;19370;48.562;9.196;2022-10-17T10:05:16;18.60;99.90
33011;DHT22;19370;48.562;9.196;2022-10-17T10:07:43;19.00;99.90
33011;DHT22;19370;48.562;9.196;2022-10-17T10:10:24;19.40;99.90
33011;DHT22;19370;48.562;9.196;2022-10-17T10:15:50;20.00;99.90
33011;DHT22;19370;48.562;9.196;2022-10-17T10:21:07;21.00;99.90
33011;DHT22;19370;48.562;9.196;2022-10-17T10:23:37;21.10;99.90
33011;DHT22;19370;48.562;9.196;2022-10-17T10:26:26;21.10;99.90
33011;DHT22;19370;48.562;9.196;2022-10-17T10:28:59;21.20;99.90
33011;DHT22;19370;48.562;9.196;2022-10-17T10:31:44;21.60;99.90
33011;DHT22;19370;48.562;9.196;2022-10-17T10:36:59;22.50;99.90
33011;DHT22;19370;48.562;9.196;2022-10-17T10:39:53;23.00;99.90
33011;DHT22;19370;48.562;9.196;2022-10-17T10:42:28;23.00;99.90
33011;DHT22;19370;48.562;9.196;2022-10-17T10:44:58;23.00;99.90
33011;DHT22;19370;48.562;9.196;2022-10-17T10:47:27;22.90;99.90
33011;DHT22;19370;48.562;9.196;2022-10-17T10:50:16;22.80;99.90
33011;DHT22;19370;48.562;9.196;2022-10-17T10:52:48;23.10;99.90
33011;DHT22;19370;48.562;9.196;2022-10-17T10:55:25;23.30;99.90
33011;DHT22;19370;48.562;9.196;2022-10-17T10:57:57;23.60;99.90
33011;DHT22;19370;48.562;9.196;2022-10-17T11:00:31;23.60;99.90
33011;DHT22;19370;48.562;9.196;2022-10-17T11:03:19;23.50;99.90
33011;DHT22;19370;48.562;9.196;2022-10-17T11:05:52;24.10;99.90
33011;DHT22;19370;48.562;9.196;2022-10-17T11:11:31;24.80;99.90
33011;DHT22;19370;48.562;9.196;2022-10-17T11:14:04;24.80;99.90
33011;DHT22;19370;48.562;9.196;2022-10-17T11:16:55;24.60;99.90
33011;DHT22;19370;48.562;9.196;2022-10-17T11:19:34;24.90;99.90
33011;DHT22;19370;48.562;9.196;2022-10-17T11:22:13;24.80;99.90
33011;DHT22;19370;48.562;9.196;2022-10-17T11:25:11;25.00;99.90
33011;DHT22;19370;48.562;9.196;2022-10-17T11:27:39;25.50;99.90
33011;DHT22;19370;48.562;9.196;2022-10-17T11:30:08;25.70;99.90
33011;DHT22;19370;48.562;9.196;2022-10-17T11:32:47;25.90;99.90
33011;DHT22;19370;48.562;9.196;2022-10-17T11:35:40;26.20;96.30
33011;DHT22;19370;48.562;9.196;2022-10-17T11:41:11;27.10;98.10
33011;DHT22;19370;48.562;9.196;2022-10-17T11:43:57;26.90;95.50
33011;DHT22;19370;48.562;9.196;2022-10-17T11:46:26;27.30;93.80
33011;DHT22;19370;48.562;9.196;2022-10-17T11:51:24;27.50;94.90
33011;DHT22;19370;48.562;9.196;2022-10-17T11:54:04;27.20;94.80
33011;DHT22;19370;48.562;9.196;2022-10-17T11:59:39;27.40;91.80
33011;DHT22;19370;48.562;9.196;2022-10-17T12:02:42;27.50;91.40
33011;DHT22;19370;48.562;9.196;2022-10-17T12:05:23;27.70;89.00
33011;DHT22;19370;48.562;9.196;2022-10-17T12:07:58;27.50;87.00
33011;DHT22;19370;48.562;9.196;2022-10-17T12:15:51;27.20;83.50
33011;DHT22;19370;48.562;9.196;2022-10-17T12:18:17;26.80;84.90
33011;DHT22;19370;48.562;9.196;2022-10-17T12:20:58;26.60;84.90
33011;DHT22;19370;48.562;9.196;2022-10-17T12:23:29;26.30;84.30
33011;DHT22;19370;48.562;9.196;2022-10-17T12:26:00;26.20;86.90
33011;DHT22;19370;48.562;9.196;2022-10-17T12:31:23;26.30;85.00
33011;DHT22;19370;48.562;9.196;2022-10-17T12:33:56;26.20;86.70
33011;DHT22;19370;48.562;9.196;2022-10-17T12:49:49;26.10;83.00
33011;DHT22;19370;48.562;9.196;2022-10-17T13:02:55;24.40;79.50
33011;DHT22;19370;48.562;9.196;2022-10-17T13:07:52;24.30;80.90
33011;DHT22;19370;48.562;9.196;2022-10-17T13:10:22;24.30;80.50
33011;DHT22;19370;48.562;9.196;2022-10-17T13:12:49;24.00;80.70
33011;DHT22;19370;48.562;9.196;2022-10-17T13:15:17;23.80;80.40
33011;DHT22;19370;48.562;9.196;2022-10-17T13:17:43;23.90;80.60
33011;DHT22;19370;48.562;9.196;2022-10-17T13:20:20;23.70;81.10
33011;DHT22;19370;48.562;9.196;2022-10-17T13:22:50;23.80;81.00
33011;DHT22;19370;48.562;9.196;2022-10-17T13:25:18;23.60;82.50
33011;DHT22;19370;48.562;9.196;2022-10-17T13:27:45;23.70;80.80
33011;DHT22;19370;48.562;9.196;2022-10-17T13:30:31;23.70;81.60
33011;DHT22;19370;48.562;9.196;2022-10-17T13:32:57;23.90;80.50
33011;DHT22;19370;48.562;9.196;2022-10-17T13:35:30;23.90;80.70
33011;DHT22;19370;48.562;9.196;2022-10-17T13:37:58;24.20;79.90
33011;DHT22;19370;48.562;9.196;2022-10-17T13:40:26;24.30;79.70
33011;DHT22;19370;48.562;9.196;2022-10-17T13:42:54;24.40;79.90
33011;DHT22;19370;48.562;9.196;2022-10-17T13:45:33;24.70;79.20
33011;DHT22;19370;48.562;9.196;2022-10-17T13:48:07;24.90;79.10
33011;DHT22;19370;48.562;9.196;2022-10-17T13:50:42;24.80;78.20
33011;DHT22;19370;48.562;9.196;2022-10-17T13:53:24;25.40;78.40
33011;DHT22;19370;48.562;9.196;2022-10-17T13:56:21;25.40;77.30
33011;DHT22;19370;48.562;9.196;2022-10-17T13:58:49;25.50;76.60
33011;DHT22;19370;48.562;9.196;2022-10-17T14:01:16;25.60;77.30
33011;DHT22;19370;48.562;9.196;2022-10-17T14:03:43;25.70;75.50
33011;DHT22;19370;48.562;9.196;2022-10-17T14:08:55;26.20;75.20
33011;DHT22;19370;48.562;9.196;2022-10-17T14:11:36;26.30;73.70
33011;DHT22;19370;48.562;9.196;2022-10-17T14:14:05;26.20;74.00
33011;DHT22;19370;48.562;9.196;2022-10-17T14:16:39;26.30;73.70
33011;DHT22;19370;48.562;9.196;2022-10-17T14:22:14;26.40;72.60
33011;DHT22;19370;48.562;9.196;2022-10-17T14:24:42;26.80;72.20
33011;DHT22;19370;48.562;9.196;2022-10-17T14:30:00;27.20;71.70
33011;DHT22;19370;48.562;9.196;2022-10-17T14:32:30;27.90;69.80
33011;DHT22;19370;48.562;9.196;2022-10-17T14:34:58;28.50;68.70
33011;DHT22;19370;48.562;9.196;2022-10-17T14:40:24;28.10;67.90
33011;DHT22;19370;48.562;9.196;2022-10-17T14:42:51;28.40;67.00
33011;DHT22;19370;48.562;9.196;2022-10-17T14:45:36;28.90;66.20
33011;DHT22;19370;48.562;9.196;2022-10-17T14:50:37;29.50;65.30
33011;DHT22;19370;48.562;9.196;2022-10-17T14:55:36;29.70;63.40
33011;DHT22;19370;48.562;9.196;2022-10-17T14:58:21;29.60;62.90
33011;DHT22;19370;48.562;9.196;2022-10-17T15:00:48;28.90;62.90
33011;DHT22;19370;48.562;9.196;2022-10-17T15:03:14;28.50;63.50
33011;DHT22;19370;48.562;9.196;2022-10-17T15:05:40;28.60;63.60
33011;DHT22;19370;48.562;9.196;2022-10-17T15:08:13;28.70;64.80
33011;DHT22;19370;48.562;9.196;2022-10-17T15:10:40;28.20;63.50
33011;DHT22;19370;48.562;9.196;2022-10-17T15:13:10;27.80;64.90
33011;DHT22;19370;48.562;9.196;2022-10-17T15:15:37;28.10;66.00
33011;DHT22;19370;48.562;9.196;2022-10-17T15:18:04;28.60;65.50
33011;DHT22;19370;48.562;9.196;2022-10-17T15:20:30;28.80;64.70
33011;DHT22;19370;48.562;9.196;2022-10-17T15:22:58;28.70;64.50
33011;DHT22;19370;48.562;9.196;2022-10-17T15:25:26;28.90;63.70
33011;DHT22;19370;48.562;9.196;2022-10-17T15:27:52;29.00;64.80
33011;DHT22;19370;48.562;9.196;2022-10-17T15:30:23;29.20;65.50
33011;DHT22;19370;48.562;9.196;2022-10-17T15:32:50;29.10;64.60
33011;DHT22;19370;48.562;9.196;2022-10-17T15:35:16;28.90;67.10
33011;DHT22;19370;48.562;9.196;2022-10-17T15:37:43;28.10;64.60
33011;DHT22;19370;48.562;9.196;2022-10-17T15:42:42;25.80;69.60
33011;DHT22;19370;48.562;9.196;2022-10-17T15:45:10;24.90;73.30
33011;DHT22;19370;48.562;9.196;2022-10-17T15:47:37;24.30;75.40
33011;DHT22;19370;48.562;9.196;2022-10-17T15:50:05;23.60;77.60
33011;DHT22;19370;48.562;9.196;2022-10-17T15:52:33;23.20;79.70
33011;DHT22;19370;48.562;9.196;2022-10-17T15:55:00;22.90;81.40
33011;DHT22;19370;48.562;9.196;2022-10-17T15:57:33;22.60;81.70
33011;DHT22;19370;48.562;9.196;2022-10-17T15:59:59;22.30;83.20
33011;DHT22;19370;48.562;9.196;2022-10-17T16:02:25;22.10;85.00
33011;DHT22;19370;48.562;9.196;2022-10-17T16:04:52;21.80;87.60
33011;DHT22;19370;48.562;9.196;2022-10-17T16:07:19;21.80;86.20
33011;DHT22;19370;48.562;9.196;2022-10-17T16:09:45;21.60;87.10
33011;DHT22;19370;48.562;9.196;2022-10-17T16:12:31;21.50;90.30
33011;DHT22;19370;48.562;9.196;2022-10-17T16:15:01;21.30;89.20
33011;DHT22;19370;48.562;9.196;2022-10-17T16:17:27;21.10;91.60
33011;DHT22;19370;48.562;9.196;2022-10-17T16:19:52;20.90;93.60
33011;DHT22;19370;48.562;9.196;2022-10-17T16:22:32;20.70;94.10
33011;DHT22;19370;48.562;9.196;2022-10-17T16:25:03;20.40;96.70
33011;DHT22;19370;48.562;9.196;2022-10-17T16:27:37;20.20;97.90
33011;DHT22;19370;48.562;9.196;2022-10-17T16:30:05;19.90;99.50
33011;DHT22;19370;48.562;9.196;2022-10-17T16:32:32;19.70;99.90
33011;DHT22;19370;48.562;9.196;2022-10-17T16:34:57;19.50;99.90
33011;DHT22;19370;48.562;9.196;2022-10-17T16:37:26;19.40;99.90
33011;DHT22;19370;48.562;9.196;2022-10-17T16:39:52;19.20;99.90
33011;DHT22;19370;48.562;9.196;2022-10-17T16:42:21;19.10;99.90
33011;DHT22;19370;48.562;9.196;2022-10-17T16:44:48;19.10;99.90
33011;DHT22;19370;48.562;9.196;2022-10-17T16:47:16;18.90;99.90
33011;DHT22;19370;48.562;9.196;2022-10-17T16:49:42;18.90;99.90
33011;DHT22;19370;48.562;9.196;2022-10-17T16:52:08;18.80;99.90
33011;DHT22;19370;48.562;9.196;2022-10-17T16:54:34;18.90;99.90
33011;DHT22;19370;48.562;9.196;2022-10-17T16:57:01;18.80;99.90
33011;DHT22;19370;48.562;9.196;2022-10-17T16:59:31;18.80;99.90
33011;DHT22;19370;48.562;9.196;2022-10-17T17:01:57;18.70;99.90
33011;DHT22;19370;48.562;9.196;2022-10-17T17:04:22;18.60;99.90
33011;DHT22;19370;48.562;9.196;2022-10-17T17:06:48;18.60;99.90
33011;DHT22;19370;48.562;9.196;2022-10-17T17:09:14;18.50;99.90
33011;DHT22;19370;48.562;9.196;2022-10-17T17:11:40;18.50;99.90
33011;DHT22;19370;48.562;9.196;2022-10-17T17:14:06;18.50;99.90
33011;DHT22;19370;48.562;9.196;2022-10-17T17:16:34;18.40;99.90
33011;DHT22;19370;48.562;9.196;2022-10-17T17:19:12;18.30;99.90
33011;DHT22;19370;48.562;9.196;2022-10-17T17:21:39;18.20;99.90
33011;DHT22;19370;48.562;9.196;2022-10-17T17:24:05;18.10;99.90
33011;DHT22;19370;48.562;9.196;2022-10-17T17:26:32;18.10;99.90
33011;DHT22;19370;48.562;9.196;2022-10-17T17:29:01;17.90;99.90
33011;DHT22;19370;48.562;9.196;2022-10-17T17:31:29;17.80;99.90
33011;DHT22;19370;48.562;9.196;2022-10-17T17:33:56;17.80;99.90
33011;DHT22;19370;48.562;9.196;2022-10-17T17:36:36;17.80;99.90
33011;DHT22;19370;48.562;9.196;2022-10-17T17:39:07;17.70;99.90
33011;DHT22;19370;48.562;9.196;2022-10-17T17:41:34;17.60;99.90
33011;DHT22;19370;48.562;9.196;2022-10-17T17:44:02;17.50;99.90